sensor_id;sensor_type;location;lat;lon;timestamp;P1;durP1;ratioP1;P2;durP2;ratioP2
20454;SDS011;10386;54.314;10.022;2023-08-17T00:01:36;5.07;;;3.00;;
20454;SDS011;10386;54.314;10.022;2023-08-17T00:04:03;10.27;;;4.17;;
20454;SDS011;10386;54.314;10.022;2023-08-17T00:06:30;8.40;;;3.10;;
20454;SDS011;10386;54.314;10.022;2023-08-17T00:08:56;4.50;;;3.43;;
20454;SDS011;10386;54.314;10.022;2023-08-17T00:11:25;6.33;;;3.10;;
20454;SDS011;10386;54.314;10.022;2023-08-17T00:13:52;6.17;;;3.40;;
20454;SDS011;10386;54.314;10.022;2023-08-17T00:16:21;8.50;;;3.57;;
20454;SDS011;10386;54.314;10.022;2023-08-17T00:18:54;5.63;;;3.07;;
20454;SDS011;10386;54.314;10.022;2023-08-17T00:21:21;7.90;;;3.80;;
20454;SDS011;10386;54.314;10.022;2023-08-17T00:23:48;6.30;;;3.50;;
20454;SDS011;10386;54.314;10.022;2023-08-17T00:26:15;6.77;;;3.40;;
20454;SDS011;10386;54.314;10.022;2023-08-17T00:28:42;14.87;;;3.67;;
20454;SDS011;10386;54.314;10.022;2023-08-17T00:31:09;6.73;;;3.30;;
20454;SDS011;10386;54.314;10.022;2023-08-17T00:33:35;11.43;;;3.40;;
20454;SDS011;10386;54.314;10.022;2023-08-17T00:36:02;6.03;;;3.50;;
20454;SDS011;10386;54.314;10.022;2023-08-17T00:38:29;5.17;;;3.07;;
20454;SDS011;10386;54.314;10.022;2023-08-17T00:40:56;5.60;;;3.40;;
20454;SDS011;10386;54.314;10.022;2023-08-17T00:43:23;6.10;;;3.33;;
20454;SDS011;10386;54.314;10.022;2023-08-17T00:45:50;3.97;;;3.20;;
20454;SDS011;10386;54.314;10.022;2023-08-17T00:48:17;3.37;;;2.70;;
20454;SDS011;10386;54.314;10.022;2023-08-17T00:50:44;6.47;;;3.37;;
20454;SDS011;10386;54.314;10.022;2023-08-17T00:53:15;6.43;;;3.20;;
20454;SDS011;10386;54.314;10.022;2023-08-17T00:55:42;6.17;;;3.30;;
20454;SDS011;10386;54.314;10.022;2023-08-17T00:58:10;8.33;;;3.37;;
20454;SDS011;10386;54.314;10.022;2023-08-17T01:00:36;4.77;;;3.13;;
20454;SDS011;10386;54.314;10.022;2023-08-17T01:03:04;5.33;;;3.40;;
20454;SDS011;10386;54.314;10.022;2023-08-17T01:05:31;7.33;;;3.77;;
20454;SDS011;10386;54.314;10.022;2023-08-17T01:07:59;8.47;;;4.20;;
20454;SDS011;10386;54.314;10.022;2023-08-17T01:10:33;10.77;;;5.53;;
20454;SDS011;10386;54.314;10.022;2023-08-17T01:13:11;13.90;;;6.00;;
20454;SDS011;10386;54.314;10.022;2023-08-17T01:15:47;17.00;;;5.40;;
20454;SDS011;10386;54.314;10.022;2023-08-17T01:21:16;18.50;;;5.70;;
20454;SDS011;10386;54.314;10.022;2023-08-17T01:23:45;13.20;;;5.97;;
20454;SDS011;10386;54.314;10.022;2023-08-17T01:26:12;9.57;;;4.57;;
20454;SDS011;10386;54.314;10.022;2023-08-17T01:28:42;8.60;;;4.67;;
20454;SDS011;10386;54.314;10.022;2023-08-17T01:31:13;7.30;;;3.80;;
20454;SDS011;10386;54.314;10.022;2023-08-17T01:33:50;8.60;;;3.60;;
20454;SDS011;10386;54.314;10.022;2023-08-17T01:36:22;5.30;;;3.33;;
20454;SDS011;10386;54.314;10.022;2023-08-17T01:38:53;10.13;;;3.30;;
20454;SDS011;10386;54.314;10.022;2023-08-17T01:41:23;5.87;;;3.30;;
20454;SDS011;10386;54.314;10.022;2023-08-17T01:43:54;5.03;;;3.37;;
20454;SDS011;10386;54.314;10.022;2023-08-17T01:46:21;5.90;;;3.83;;
20454;SDS011;10386;54.314;10.022;2023-08-17T01:48:48;9.83;;;3.50;;
20454;SDS011;10386;54.314;10.022;2023-08-17T01:51:16;5.33;;;3.80;;
20454;SDS011;10386;54.314;10.022;2023-08-17T01:53:47;7.87;;;3.63;;
20454;SDS011;10386;54.314;10.022;2023-08-17T01:56:14;8.10;;;3.83;;
20454;SDS011;10386;54.314;10.022;2023-08-17T01:58:41;7.53;;;3.70;;
20454;SDS011;10386;54.314;10.022;2023-08-17T02:01:09;7.10;;;4.03;;
20454;SDS011;10386;54.314;10.022;2023-08-17T02:03:35;5.27;;;4.00;;
20454;SDS011;10386;54.314;10.022;2023-08-17T02:06:02;8.43;;;3.97;;
20454;SDS011;10386;54.314;10.022;2023-08-17T02:08:29;6.00;;;3.70;;
20454;SDS011;10386;54.314;10.022;2023-08-17T02:10:56;10.80;;;3.60;;
20454;SDS011;10386;54.314;10.022;2023-08-17T02:13:26;5.97;;;3.30;;
20454;SDS011;10386;54.314;10.022;2023-08-17T02:15:53;8.37;;;3.60;;
20454;SDS011;10386;54.314;10.022;2023-08-17T02:18:20;8.13;;;3.20;;
20454;SDS011;10386;54.314;10.022;2023-08-17T02:20:47;6.13;;;3.53;;
20454;SDS011;10386;54.314;10.022;2023-08-17T02:23:13;5.43;;;3.00;;
20454;SDS011;10386;54.314;10.022;2023-08-17T02:25:40;5.70;;;3.00;;
20454;SDS011;10386;54.314;10.022;2023-08-17T02:28:07;8.40;;;4.30;;
20454;SDS011;10386;54.314;10.022;2023-08-17T02:30:34;6.13;;;3.00;;
20454;SDS011;10386;54.314;10.022;2023-08-17T02:33:01;4.23;;;2.80;;
20454;SDS011;10386;54.314;10.022;2023-08-17T02:35:28;4.23;;;3.00;;
20454;SDS011;10386;54.314;10.022;2023-08-17T02:37:56;3.80;;;2.90;;
20454;SDS011;10386;54.314;10.022;2023-08-17T02:40:23;6.10;;;3.03;;
20454;SDS011;10386;54.314;10.022;2023-08-17T02:42:49;5.27;;;3.03;;
20454;SDS011;10386;54.314;10.022;2023-08-17T02:45:16;5.23;;;2.80;;
20454;SDS011;10386;54.314;10.022;2023-08-17T02:47:43;4.80;;;2.67;;
20454;SDS011;10386;54.314;10.022;2023-08-17T02:50:10;5.17;;;2.50;;
20454;SDS011;10386;54.314;10.022;2023-08-17T02:52:37;4.27;;;2.73;;
20454;SDS011;10386;54.314;10.022;2023-08-17T02:55:04;8.40;;;2.70;;
20454;SDS011;10386;54.314;10.022;2023-08-17T02:57:31;5.83;;;3.07;;
20454;SDS011;10386;54.314;10.022;2023-08-17T02:59:58;4.53;;;2.80;;
20454;SDS011;10386;54.314;10.022;2023-08-17T03:02:26;7.03;;;3.00;;
20454;SDS011;10386;54.314;10.022;2023-08-17T03:04:53;8.67;;;2.97;;
20454;SDS011;10386;54.314;10.022;2023-08-17T03:07:19;3.97;;;2.80;;
20454;SDS011;10386;54.314;10.022;2023-08-17T03:09:46;6.27;;;3.00;;
20454;SDS011;10386;54.314;10.022;2023-08-17T03:12:13;3.00;;;2.37;;
20454;SDS011;10386;54.314;10.022;2023-08-17T03:14:40;4.67;;;2.67;;
20454;SDS011;10386;54.314;10.022;2023-08-17T03:17:07;5.70;;;3.10;;
20454;SDS011;10386;54.314;10.022;2023-08-17T03:19:34;7.00;;;2.90;;
20454;SDS011;10386;54.314;10.022;2023-08-17T03:22:00;5.60;;;2.90;;
20454;SDS011;10386;54.314;10.022;2023-08-17T03:24:27;5.77;;;3.10;;
20454;SDS011;10386;54.314;10.022;2023-08-17T03:26:54;4.17;;;2.83;;
20454;SDS011;10386;54.314;10.022;2023-08-17T03:29:21;5.53;;;3.03;;
20454;SDS011;10386;54.314;10.022;2023-08-17T03:31:48;10.50;;;4.23;;
20454;SDS011;10386;54.314;10.022;2023-08-17T03:34:16;6.17;;;2.90;;
20454;SDS011;10386;54.314;10.022;2023-08-17T03:36:42;5.97;;;3.30;;
20454;SDS011;10386;54.314;10.022;2023-08-17T03:39:09;5.80;;;2.80;;
20454;SDS011;10386;54.314;10.022;2023-08-17T03:41:37;5.70;;;2.77;;
20454;SDS011;10386;54.314;10.022;2023-08-17T03:44:05;7.87;;;3.00;;
20454;SDS011;10386;54.314;10.022;2023-08-17T03:46:32;6.67;;;3.00;;
20454;SDS011;10386;54.314;10.022;2023-08-17T03:49:00;6.30;;;2.93;;
20454;SDS011;10386;54.314;10.022;2023-08-17T03:51:26;3.33;;;2.57;;
20454;SDS011;10386;54.314;10.022;2023-08-17T03:53:53;3.37;;;2.60;;
20454;SDS011;10386;54.314;10.022;2023-08-17T03:56:20;7.13;;;2.87;;
20454;SDS011;10386;54.314;10.022;2023-08-17T03:58:47;8.87;;;2.97;;
20454;SDS011;10386;54.314;10.022;2023-08-17T04:01:14;10.70;;;3.40;;
20454;SDS011;10386;54.314;10.022;2023-08-17T04:03:41;5.77;;;2.67;;
20454;SDS011;10386;54.314;10.022;2023-08-17T04:06:07;6.73;;;2.67;;
20454;SDS011;10386;54.314;10.022;2023-08-17T04:08:37;7.43;;;2.47;;
20454;SDS011;10386;54.314;10.022;2023-08-17T04:11:04;4.77;;;2.07;;
20454;SDS011;10386;54.314;10.022;2023-08-17T04:13:32;6.27;;;2.23;;
20454;SDS011;10386;54.314;10.022;2023-08-17T04:15:59;7.40;;;2.53;;
20454;SDS011;10386;54.314;10.022;2023-08-17T04:18:26;5.87;;;2.30;;
20454;SDS011;10386;54.314;10.022;2023-08-17T04:20:52;11.47;;;4.40;;
20454;SDS011;10386;54.314;10.022;2023-08-17T04:23:20;10.17;;;4.23;;
20454;SDS011;10386;54.314;10.022;2023-08-17T04:25:47;10.80;;;3.40;;
20454;SDS011;10386;54.314;10.022;2023-08-17T04:28:14;10.17;;;3.47;;
20454;SDS011;10386;54.314;10.022;2023-08-17T04:30:42;6.80;;;2.67;;
20454;SDS011;10386;54.314;10.022;2023-08-17T04:33:09;6.37;;;2.30;;
20454;SDS011;10386;54.314;10.022;2023-08-17T04:35:36;4.40;;;2.03;;
20454;SDS011;10386;54.314;10.022;2023-08-17T04:38:03;6.17;;;2.07;;
20454;SDS011;10386;54.314;10.022;2023-08-17T04:40:30;4.20;;;2.00;;
20454;SDS011;10386;54.314;10.022;2023-08-17T04:42:57;4.43;;;2.10;;
20454;SDS011;10386;54.314;10.022;2023-08-17T04:45:24;5.27;;;2.10;;
20454;SDS011;10386;54.314;10.022;2023-08-17T04:47:51;3.70;;;2.20;;
20454;SDS011;10386;54.314;10.022;2023-08-17T04:50:18;3.17;;;1.90;;
20454;SDS011;10386;54.314;10.022;2023-08-17T04:52:45;5.37;;;1.97;;
20454;SDS011;10386;54.314;10.022;2023-08-17T04:55:12;4.77;;;1.60;;
20454;SDS011;10386;54.314;10.022;2023-08-17T04:57:41;4.77;;;1.60;;
20454;SDS011;10386;54.314;10.022;2023-08-17T05:00:07;9.13;;;1.97;;
20454;SDS011;10386;54.314;10.022;2023-08-17T05:02:36;2.80;;;1.70;;
20454;SDS011;10386;54.314;10.022;2023-08-17T05:05:04;2.80;;;2.10;;
20454;SDS011;10386;54.314;10.022;2023-08-17T05:07:34;2.03;;;1.60;;
20454;SDS011;10386;54.314;10.022;2023-08-17T05:10:01;5.13;;;1.90;;
20454;SDS011;10386;54.314;10.022;2023-08-17T05:12:28;2.43;;;1.83;;
20454;SDS011;10386;54.314;10.022;2023-08-17T05:14:55;4.57;;;2.10;;
20454;SDS011;10386;54.314;10.022;2023-08-17T05:17:23;2.57;;;1.80;;
20454;SDS011;10386;54.314;10.022;2023-08-17T05:19:51;2.43;;;1.60;;
20454;SDS011;10386;54.314;10.022;2023-08-17T05:22:18;1.50;;;1.40;;
20454;SDS011;10386;54.314;10.022;2023-08-17T05:24:45;3.73;;;1.67;;
20454;SDS011;10386;54.314;10.022;2023-08-17T05:27:12;3.23;;;1.83;;
20454;SDS011;10386;54.314;10.022;2023-08-17T05:29:39;3.13;;;1.60;;
20454;SDS011;10386;54.314;10.022;2023-08-17T05:32:06;2.37;;;1.60;;
20454;SDS011;10386;54.314;10.022;2023-08-17T05:34:33;5.60;;;1.70;;
20454;SDS011;10386;54.314;10.022;2023-08-17T05:37:01;3.97;;;2.10;;
20454;SDS011;10386;54.314;10.022;2023-08-17T05:39:29;2.10;;;1.60;;
20454;SDS011;10386;54.314;10.022;2023-08-17T05:41:58;3.97;;;1.77;;
20454;SDS011;10386;54.314;10.022;2023-08-17T05:44:25;2.37;;;1.20;;
20454;SDS011;10386;54.314;10.022;2023-08-17T05:46:52;7.63;;;1.83;;
20454;SDS011;10386;54.314;10.022;2023-08-17T05:49:19;3.77;;;1.63;;
20454;SDS011;10386;54.314;10.022;2023-08-17T05:51:47;5.03;;;1.70;;
20454;SDS011;10386;54.314;10.022;2023-08-17T05:54:14;3.27;;;1.30;;
20454;SDS011;10386;54.314;10.022;2023-08-17T05:56:45;7.10;;;1.63;;
20454;SDS011;10386;54.314;10.022;2023-08-17T05:59:13;3.17;;;1.40;;
20454;SDS011;10386;54.314;10.022;2023-08-17T06:01:42;2.30;;;1.50;;
20454;SDS011;10386;54.314;10.022;2023-08-17T06:04:09;5.60;;;1.87;;
20454;SDS011;10386;54.314;10.022;2023-08-17T06:06:36;5.53;;;1.70;;
20454;SDS011;10386;54.314;10.022;2023-08-17T06:09:03;8.43;;;1.70;;
20454;SDS011;10386;54.314;10.022;2023-08-17T06:11:30;3.93;;;1.50;;
20454;SDS011;10386;54.314;10.022;2023-08-17T06:13:58;1.57;;;1.47;;
20454;SDS011;10386;54.314;10.022;2023-08-17T06:16:25;2.87;;;1.63;;
20454;SDS011;10386;54.314;10.022;2023-08-17T06:18:52;4.57;;;1.40;;
20454;SDS011;10386;54.314;10.022;2023-08-17T06:21:19;3.03;;;1.70;;
20454;SDS011;10386;54.314;10.022;2023-08-17T06:23:46;1.57;;;1.30;;
20454;SDS011;10386;54.314;10.022;2023-08-17T06:26:13;3.47;;;1.70;;
20454;SDS011;10386;54.314;10.022;2023-08-17T06:28:39;2.83;;;1.50;;
20454;SDS011;10386;54.314;10.022;2023-08-17T06:31:07;3.45;;;1.70;;
20454;SDS011;10386;54.314;10.022;2023-08-17T06:33:41;3.97;;;1.63;;
20454;SDS011;10386;54.314;10.022;2023-08-17T06:36:33;5.07;;;1.50;;
20454;SDS011;10386;54.314;10.022;2023-08-17T06:39:15;3.50;;;2.17;;
20454;SDS011;10386;54.314;10.022;2023-08-17T06:42:20;5.87;;;1.70;;
20454;SDS011;10386;54.314;10.022;2023-08-17T06:44:52;3.57;;;1.50;;
20454;SDS011;10386;54.314;10.022;2023-08-17T06:47:20;3.70;;;1.60;;
20454;SDS011;10386;54.314;10.022;2023-08-17T06:49:47;4.43;;;1.77;;
20454;SDS011;10386;54.314;10.022;2023-08-17T06:52:14;2.83;;;1.30;;
20454;SDS011;10386;54.314;10.022;2023-08-17T06:54:41;4.33;;;1.70;;
20454;SDS011;10386;54.314;10.022;2023-08-17T06:57:08;2.47;;;1.50;;
20454;SDS011;10386;54.314;10.022;2023-08-17T06:59:35;4.67;;;1.40;;
20454;SDS011;10386;54.314;10.022;2023-08-17T07:02:05;4.13;;;1.50;;
20454;SDS011;10386;54.314;10.022;2023-08-17T07:04:54;3.80;;;1.60;;
20454;SDS011;10386;54.314;10.022;2023-08-17T07:07:21;7.10;;;1.70;;
20454;SDS011;10386;54.314;10.022;2023-08-17T07:09:48;1.77;;;1.60;;
20454;SDS011;10386;54.314;10.022;2023-08-17T07:12:26;5.63;;;1.80;;
20454;SDS011;10386;54.314;10.022;2023-08-17T07:14:54;3.20;;;1.60;;
20454;SDS011;10386;54.314;10.022;2023-08-17T07:17:21;1.30;;;1.30;;
20454;SDS011;10386;54.314;10.022;2023-08-17T07:19:48;3.37;;;2.00;;
20454;SDS011;10386;54.314;10.022;2023-08-17T07:22:35;1.93;;;1.50;;
20454;SDS011;10386;54.314;10.022;2023-08-17T07:25:02;2.63;;;1.30;;
20454;SDS011;10386;54.314;10.022;2023-08-17T07:27:29;6.53;;;1.57;;
20454;SDS011;10386;54.314;10.022;2023-08-17T07:29:56;7.43;;;1.80;;
20454;SDS011;10386;54.314;10.022;2023-08-17T07:32:23;4.57;;;1.60;;
20454;SDS011;10386;54.314;10.022;2023-08-17T07:34:59;6.53;;;1.83;;
20454;SDS011;10386;54.314;10.022;2023-08-17T07:37:35;4.60;;;1.70;;
20454;SDS011;10386;54.314;10.022;2023-08-17T07:40:02;5.47;;;1.80;;
20454;SDS011;10386;54.314;10.022;2023-08-17T07:42:30;5.93;;;2.53;;
20454;SDS011;10386;54.314;10.022;2023-08-17T07:44:57;2.70;;;1.90;;
20454;SDS011;10386;54.314;10.022;2023-08-17T07:47:24;3.97;;;1.80;;
20454;SDS011;10386;54.314;10.022;2023-08-17T07:49:52;4.40;;;1.80;;
20454;SDS011;10386;54.314;10.022;2023-08-17T07:52:19;2.80;;;1.80;;
20454;SDS011;10386;54.314;10.022;2023-08-17T07:54:45;4.87;;;1.60;;
20454;SDS011;10386;54.314;10.022;2023-08-17T07:57:12;4.30;;;1.77;;
20454;SDS011;10386;54.314;10.022;2023-08-17T07:59:39;8.60;;;1.97;;
20454;SDS011;10386;54.314;10.022;2023-08-17T08:02:09;6.03;;;2.30;;
20454;SDS011;10386;54.314;10.022;2023-08-17T08:04:42;6.77;;;1.90;;
20454;SDS011;10386;54.314;10.022;2023-08-17T08:07:15;4.97;;;2.13;;
20454;SDS011;10386;54.314;10.022;2023-08-17T08:09:48;8.80;;;2.10;;
20454;SDS011;10386;54.314;10.022;2023-08-17T08:12:15;2.20;;;2.00;;
20454;SDS011;10386;54.314;10.022;2023-08-17T08:14:42;8.43;;;2.00;;
20454;SDS011;10386;54.314;10.022;2023-08-17T08:17:20;10.47;;;2.10;;
20454;SDS011;10386;54.314;10.022;2023-08-17T08:19:51;6.20;;;2.00;;
20454;SDS011;10386;54.314;10.022;2023-08-17T08:22:29;2.30;;;1.67;;
20454;SDS011;10386;54.314;10.022;2023-08-17T08:25:25;4.90;;;1.90;;
20454;SDS011;10386;54.314;10.022;2023-08-17T08:27:52;4.73;;;1.60;;
20454;SDS011;10386;54.314;10.022;2023-08-17T08:30:19;4.97;;;1.80;;
20454;SDS011;10386;54.314;10.022;2023-08-17T08:32:46;4.47;;;2.10;;
20454;SDS011;10386;54.314;10.022;2023-08-17T08:35:17;2.97;;;1.63;;
20454;SDS011;10386;54.314;10.022;2023-08-17T08:37:43;3.70;;;1.73;;
20454;SDS011;10386;54.314;10.022;2023-08-17T08:40:11;9.33;;;2.20;;
20454;SDS011;10386;54.314;10.022;2023-08-17T08:42:41;1.93;;;1.60;;
20454;SDS011;10386;54.314;10.022;2023-08-17T08:45:08;2.83;;;1.80;;
20454;SDS011;10386;54.314;10.022;2023-08-17T08:47:36;4.80;;;2.00;;
20454;SDS011;10386;54.314;10.022;2023-08-17T08:50:04;8.57;;;2.03;;
20454;SDS011;10386;54.314;10.022;2023-08-17T08:52:36;3.90;;;1.90;;
20454;SDS011;10386;54.314;10.022;2023-08-17T08:57:38;2.38;;;1.52;;
20454;SDS011;10386;54.314;10.022;2023-08-17T09:00:06;2.07;;;1.53;;
20454;SDS011;10386;54.314;10.022;2023-08-17T09:02:35;5.40;;;1.53;;
20454;SDS011;10386;54.314;10.022;2023-08-17T09:05:04;6.53;;;1.80;;
20454;SDS011;10386;54.314;10.022;2023-08-17T09:07:32;4.93;;;1.83;;
20454;SDS011;10386;54.314;10.022;2023-08-17T09:10:01;4.43;;;1.47;;
20454;SDS011;10386;54.314;10.022;2023-08-17T09:12:30;3.27;;;1.70;;
20454;SDS011;10386;54.314;10.022;2023-08-17T09:15:06;3.53;;;1.60;;
20454;SDS011;10386;54.314;10.022;2023-08-17T09:17:32;5.23;;;1.57;;
20454;SDS011;10386;54.314;10.022;2023-08-17T09:20:03;4.13;;;1.43;;
20454;SDS011;10386;54.314;10.022;2023-08-17T09:22:40;3.60;;;1.43;;
20454;SDS011;10386;54.314;10.022;2023-08-17T09:25:10;3.37;;;1.73;;
20454;SDS011;10386;54.314;10.022;2023-08-17T09:27:37;4.03;;;1.50;;
20454;SDS011;10386;54.314;10.022;2023-08-17T09:30:05;3.97;;;1.70;;
20454;SDS011;10386;54.314;10.022;2023-08-17T09:32:33;3.20;;;1.40;;
20454;SDS011;10386;54.314;10.022;2023-08-17T09:35:04;2.40;;;1.60;;
20454;SDS011;10386;54.314;10.022;2023-08-17T09:37:32;3.35;;;1.50;;
20454;SDS011;10386;54.314;10.022;2023-08-17T09:39:59;5.27;;;1.67;;
20454;SDS011;10386;54.314;10.022;2023-08-17T09:42:27;4.33;;;2.20;;
20454;SDS011;10386;54.314;10.022;2023-08-17T09:44:54;4.23;;;1.83;;
20454;SDS011;10386;54.314;10.022;2023-08-17T09:47:25;3.63;;;1.80;;
20454;SDS011;10386;54.314;10.022;2023-08-17T09:49:54;4.93;;;2.00;;
20454;SDS011;10386;54.314;10.022;2023-08-17T09:52:21;4.10;;;2.00;;
20454;SDS011;10386;54.314;10.022;2023-08-17T09:54:51;3.43;;;1.90;;
20454;SDS011;10386;54.314;10.022;2023-08-17T09:57:18;4.43;;;1.90;;
20454;SDS011;10386;54.314;10.022;2023-08-17T09:59:48;1.92;;;1.73;;
20454;SDS011;10386;54.314;10.022;2023-08-17T10:02:22;4.37;;;1.70;;
20454;SDS011;10386;54.314;10.022;2023-08-17T10:04:53;4.53;;;2.30;;
20454;SDS011;10386;54.314;10.022;2023-08-17T10:07:25;5.03;;;2.20;;
20454;SDS011;10386;54.314;10.022;2023-08-17T10:10:02;4.73;;;2.03;;
20454;SDS011;10386;54.314;10.022;2023-08-17T10:12:33;4.20;;;2.20;;
20454;SDS011;10386;54.314;10.022;2023-08-17T10:15:13;3.47;;;2.20;;
20454;SDS011;10386;54.314;10.022;2023-08-17T10:20:54;3.90;;;2.25;;
20454;SDS011;10386;54.314;10.022;2023-08-17T10:23:28;4.90;;;2.40;;
20454;SDS011;10386;54.314;10.022;2023-08-17T10:25:56;8.90;;;2.40;;
20454;SDS011;10386;54.314;10.022;2023-08-17T10:28:24;8.07;;;2.77;;
20454;SDS011;10386;54.314;10.022;2023-08-17T10:30:51;5.13;;;2.57;;
20454;SDS011;10386;54.314;10.022;2023-08-17T10:33:18;4.97;;;2.57;;
20454;SDS011;10386;54.314;10.022;2023-08-17T10:35:45;3.77;;;2.43;;
20454;SDS011;10386;54.314;10.022;2023-08-17T10:38:13;6.00;;;2.40;;
20454;SDS011;10386;54.314;10.022;2023-08-17T10:40:42;4.17;;;2.67;;
20454;SDS011;10386;54.314;10.022;2023-08-17T10:43:09;7.33;;;2.40;;
20454;SDS011;10386;54.314;10.022;2023-08-17T10:45:38;7.27;;;2.83;;
20454;SDS011;10386;54.314;10.022;2023-08-17T10:50:35;5.63;;;2.63;;
20454;SDS011;10386;54.314;10.022;2023-08-17T10:53:09;4.30;;;2.70;;
20454;SDS011;10386;54.314;10.022;2023-08-17T10:55:38;6.67;;;2.60;;
20454;SDS011;10386;54.314;10.022;2023-08-17T10:58:07;8.23;;;3.20;;
20454;SDS011;10386;54.314;10.022;2023-08-17T11:00:41;5.50;;;2.70;;
20454;SDS011;10386;54.314;10.022;2023-08-17T11:03:17;6.20;;;2.70;;
20454;SDS011;10386;54.314;10.022;2023-08-17T11:05:50;4.17;;;2.50;;
20454;SDS011;10386;54.314;10.022;2023-08-17T11:11:12;5.20;;;2.53;;
20454;SDS011;10386;54.314;10.022;2023-08-17T11:13:41;6.80;;;2.77;;
20454;SDS011;10386;54.314;10.022;2023-08-17T11:16:10;5.83;;;3.20;;
20454;SDS011;10386;54.314;10.022;2023-08-17T11:18:44;3.60;;;2.53;;
20454;SDS011;10386;54.314;10.022;2023-08-17T11:21:11;6.80;;;3.00;;
20454;SDS011;10386;54.314;10.022;2023-08-17T11:23:45;5.93;;;2.97;;
20454;SDS011;10386;54.314;10.022;2023-08-17T11:26:12;7.27;;;2.60;;
20454;SDS011;10386;54.314;10.022;2023-08-17T11:28:42;7.67;;;2.73;;
20454;SDS011;10386;54.314;10.022;2023-08-17T11:31:12;6.43;;;2.70;;
20454;SDS011;10386;54.314;10.022;2023-08-17T11:33:40;6.30;;;2.50;;
20454;SDS011;10386;54.314;10.022;2023-08-17T11:36:08;6.80;;;2.83;;
20454;SDS011;10386;54.314;10.022;2023-08-17T11:38:37;3.80;;;2.77;;
20454;SDS011;10386;54.314;10.022;2023-08-17T11:41:05;6.38;;;2.88;;
20454;SDS011;10386;54.314;10.022;2023-08-17T11:43:34;7.47;;;2.58;;
20454;SDS011;10386;54.314;10.022;2023-08-17T11:46:02;8.55;;;3.17;;
20454;SDS011;10386;54.314;10.022;2023-08-17T11:48:30;5.63;;;2.65;;
20454;SDS011;10386;54.314;10.022;2023-08-17T11:51:02;8.43;;;2.95;;
20454;SDS011;10386;54.314;10.022;2023-08-17T11:53:34;5.35;;;2.47;;
20454;SDS011;10386;54.314;10.022;2023-08-17T11:56:02;6.30;;;2.85;;
20454;SDS011;10386;54.314;10.022;2023-08-17T11:58:45;9.13;;;2.90;;
20454;SDS011;10386;54.314;10.022;2023-08-17T12:01:13;4.43;;;2.50;;
20454;SDS011;10386;54.314;10.022;2023-08-17T12:03:43;5.37;;;2.90;;
20454;SDS011;10386;54.314;10.022;2023-08-17T12:06:11;7.38;;;2.70;;
20454;SDS011;10386;54.314;10.022;2023-08-17T12:08:42;4.53;;;2.67;;
20454;SDS011;10386;54.314;10.022;2023-08-17T12:11:15;4.47;;;2.47;;
20454;SDS011;10386;54.314;10.022;2023-08-17T12:13:43;5.57;;;2.70;;
20454;SDS011;10386;54.314;10.022;2023-08-17T12:16:17;6.15;;;3.40;;
20454;SDS011;10386;54.314;10.022;2023-08-17T12:18:49;3.92;;;2.60;;
20454;SDS011;10386;54.314;10.022;2023-08-17T12:21:16;4.68;;;3.15;;
20454;SDS011;10386;54.314;10.022;2023-08-17T12:23:45;4.18;;;2.20;;
20454;SDS011;10386;54.314;10.022;2023-08-17T12:26:17;4.43;;;2.45;;
20454;SDS011;10386;54.314;10.022;2023-08-17T12:28:45;6.20;;;2.40;;
20454;SDS011;10386;54.314;10.022;2023-08-17T12:31:12;4.00;;;2.33;;
20454;SDS011;10386;54.314;10.022;2023-08-17T12:33:39;7.68;;;2.60;;
20454;SDS011;10386;54.314;10.022;2023-08-17T12:36:06;12.27;;;2.65;;
20454;SDS011;10386;54.314;10.022;2023-08-17T12:38:33;7.57;;;2.70;;
20454;SDS011;10386;54.314;10.022;2023-08-17T12:41:00;7.57;;;2.80;;
20454;SDS011;10386;54.314;10.022;2023-08-17T12:43:32;6.00;;;2.50;;
20454;SDS011;10386;54.314;10.022;2023-08-17T12:45:59;7.95;;;2.63;;
20454;SDS011;10386;54.314;10.022;2023-08-17T12:48:26;6.15;;;2.95;;
20454;SDS011;10386;54.314;10.022;2023-08-17T12:50:53;11.07;;;3.00;;
20454;SDS011;10386;54.314;10.022;2023-08-17T12:53:20;10.05;;;3.00;;
20454;SDS011;10386;54.314;10.022;2023-08-17T12:55:47;5.88;;;2.80;;
20454;SDS011;10386;54.314;10.022;2023-08-17T12:58:14;6.10;;;2.60;;
20454;SDS011;10386;54.314;10.022;2023-08-17T13:00:41;6.03;;;2.30;;
20454;SDS011;10386;54.314;10.022;2023-08-17T13:03:11;7.82;;;2.60;;
20454;SDS011;10386;54.314;10.022;2023-08-17T13:05:40;4.95;;;2.40;;
20454;SDS011;10386;54.314;10.022;2023-08-17T13:08:07;5.27;;;2.63;;
20454;SDS011;10386;54.314;10.022;2023-08-17T13:10:35;6.15;;;2.53;;
20454;SDS011;10386;54.314;10.022;2023-08-17T13:13:02;3.10;;;2.35;;
20454;SDS011;10386;54.314;10.022;2023-08-17T13:15:29;4.70;;;2.40;;
20454;SDS011;10386;54.314;10.022;2023-08-17T13:17:56;4.88;;;2.63;;
20454;SDS011;10386;54.314;10.022;2023-08-17T13:20:23;6.57;;;2.90;;
20454;SDS011;10386;54.314;10.022;2023-08-17T13:22:49;5.85;;;2.53;;
20454;SDS011;10386;54.314;10.022;2023-08-17T13:25:16;9.90;;;3.03;;
20454;SDS011;10386;54.314;10.022;2023-08-17T13:27:44;7.17;;;2.40;;
20454;SDS011;10386;54.314;10.022;2023-08-17T13:30:10;3.77;;;2.50;;
20454;SDS011;10386;54.314;10.022;2023-08-17T13:32:38;3.15;;;2.70;;
20454;SDS011;10386;54.314;10.022;2023-08-17T13:35:07;5.88;;;2.70;;
20454;SDS011;10386;54.314;10.022;2023-08-17T13:37:36;6.27;;;2.77;;
20454;SDS011;10386;54.314;10.022;2023-08-17T13:40:03;6.28;;;2.13;;
20454;SDS011;10386;54.314;10.022;2023-08-17T13:42:31;5.20;;;2.50;;
20454;SDS011;10386;54.314;10.022;2023-08-17T13:44:58;12.67;;;3.30;;
20454;SDS011;10386;54.314;10.022;2023-08-17T13:47:25;6.33;;;2.70;;
20454;SDS011;10386;54.314;10.022;2023-08-17T13:49:52;5.13;;;3.07;;
20454;SDS011;10386;54.314;10.022;2023-08-17T13:52:19;10.37;;;3.17;;
20454;SDS011;10386;54.314;10.022;2023-08-17T13:54:45;8.20;;;3.10;;
20454;SDS011;10386;54.314;10.022;2023-08-17T13:57:12;4.90;;;2.80;;
20454;SDS011;10386;54.314;10.022;2023-08-17T13:59:39;8.33;;;3.20;;
20454;SDS011;10386;54.314;10.022;2023-08-17T14:02:06;8.10;;;2.90;;
20454;SDS011;10386;54.314;10.022;2023-08-17T14:04:32;5.60;;;2.80;;
20454;SDS011;10386;54.314;10.022;2023-08-17T14:06:59;8.83;;;2.97;;
20454;SDS011;10386;54.314;10.022;2023-08-17T14:09:26;10.03;;;3.73;;
20454;SDS011;10386;54.314;10.022;2023-08-17T14:11:53;7.53;;;3.17;;
20454;SDS011;10386;54.314;10.022;2023-08-17T14:14:19;9.50;;;3.50;;
20454;SDS011;10386;54.314;10.022;2023-08-17T14:16:46;8.63;;;3.10;;
20454;SDS011;10386;54.314;10.022;2023-08-17T14:19:13;6.70;;;2.90;;
20454;SDS011;10386;54.314;10.022;2023-08-17T14:21:40;7.77;;;3.07;;
20454;SDS011;10386;54.314;10.022;2023-08-17T14:24:07;9.63;;;3.57;;
20454;SDS011;10386;54.314;10.022;2023-08-17T14:26:34;9.70;;;3.30;;
20454;SDS011;10386;54.314;10.022;2023-08-17T14:29:03;7.13;;;3.50;;
20454;SDS011;10386;54.314;10.022;2023-08-17T14:31:30;11.43;;;3.43;;
20454;SDS011;10386;54.314;10.022;2023-08-17T14:33:57;8.80;;;3.60;;
20454;SDS011;10386;54.314;10.022;2023-08-17T14:36:24;9.23;;;3.67;;
20454;SDS011;10386;54.314;10.022;2023-08-17T14:38:50;8.13;;;3.70;;
20454;SDS011;10386;54.314;10.022;2023-08-17T14:41:17;10.87;;;4.10;;
20454;SDS011;10386;54.314;10.022;2023-08-17T14:43:44;7.23;;;3.87;;
20454;SDS011;10386;54.314;10.022;2023-08-17T14:46:11;6.57;;;3.63;;
20454;SDS011;10386;54.314;10.022;2023-08-17T14:48:41;10.40;;;3.90;;
20454;SDS011;10386;54.314;10.022;2023-08-17T14:51:08;10.10;;;3.75;;
20454;SDS011;10386;54.314;10.022;2023-08-17T14:53:35;8.32;;;4.28;;
20454;SDS011;10386;54.314;10.022;2023-08-17T14:56:05;9.07;;;3.80;;